Time;durP1;ratioP1;P1;durP2;ratioP2;P2;SDS_P1;SDS_P2;PMS_P1;PMS_P2;Temp;Humidity;BMP_temperature;BMP_pressure;BME280_temperature;BME280_humidity;BME280_pressure;Samples;Min_cycle;Max_cycle;Signal;HPM_P1;HPM_P2
2022/11/28 00:01:23;;;;;;;;;;;;;;;34.73;nan;101561.44;5088748;28;19920;-57
2022/11/28 00:03:50;;;;;;;;;;;;;;;33.16;nan;101561.56;5076384;28;19920;-56
2022/11/28 00:06:16;;;;;;;;;;;;;;;32.83;nan;101562.66;5087192;28;19920;-56
2022/11/28 00:08:43;;;;;;;;;;;;;;;41.71;nan;101548.09;5083715;28;19924;-56
2022/11/28 00:11:11;;;;;;;;;;;;;;;41.46;nan;101554.63;5091146;28;19924;-56
2022/11/28 00:13:37;;;;;;;;;;;;;;;41.98;nan;101539.75;5078954;28;19919;-56
2022/11/28 00:16:06;;;;;;;;;;;;;;;42.07;nan;101544.75;5089151;28;19932;-57
2022/11/28 00:18:32;;;;;;;;;;;;;;;41.93;nan;101544.00;5085834;28;19917;-56
2022/11/28 00:21:06;;;;;;;;;;;;;;;41.68;nan;101543.31;5081238;28;19925;-57
2022/11/28 00:23:33;;;;;;;;;;;;;;;41.41;nan;101541.75;5091865;28;20352;-56
2022/11/28 00:26:05;;;;;;;;;;;;;;;41.17;nan;101543.34;5080926;28;19924;-57
2022/11/28 00:28:31;;;;;;;;;;;;;;;40.93;nan;101552.22;5085053;28;20359;-56
2022/11/28 00:30:57;;;;;;;;;;;;;;;40.79;nan;101544.13;5087708;28;20355;-56
2022/11/28 00:33:24;;;;;;;;;;;;;;;40.61;nan;101536.13;5078667;28;19976;-56
2022/11/28 00:35:50;;;;;;;;;;;;;;;40.42;nan;101543.59;5088089;28;19916;-57
2022/11/28 00:38:17;;;;;;;;;;;;;;;40.29;nan;101541.94;5087044;28;19920;-56
2022/11/28 00:40:43;;;;;;;;;;;;;;;40.14;nan;101547.22;5086820;28;19916;-57
2022/11/28 00:43:10;;;;;;;;;;;;;;;40.00;nan;101547.63;5079499;28;19924;-56
2022/11/28 00:45:36;;;;;;;;;;;;;;;39.75;nan;101545.44;5091879;28;20015;-58
2022/11/28 00:48:03;;;;;;;;;;;;;;;39.64;nan;101542.84;5081301;28;19920;-58
2022/11/28 00:50:29;;;;;;;;;;;;;;;39.49;nan;101545.22;5085264;28;19917;-56
2022/11/28 00:52:55;;;;;;;;;;;;;;;39.38;nan;101538.22;5088242;28;20389;-58
2022/11/28 00:55:21;;;;;;;;;;;;;;;39.25;nan;101536.09;5078490;28;19977;-57
2022/11/28 00:57:47;;;;;;;;;;;;;;;39.24;nan;101537.34;5091174;28;19920;-57
2022/11/28 01:00:14;;;;;;;;;;;;;;;39.13;nan;101538.81;5082976;28;19916;-57
2022/11/28 01:02:40;;;;;;;;;;;;;;;38.90;nan;101545.44;5083426;28;19927;-57
2022/11/28 01:05:06;;;;;;;;;;;;;;;38.72;nan;101545.03;5083674;28;20394;-57
2022/11/28 01:07:33;;;;;;;;;;;;;;;38.62;nan;101539.13;5091327;28;19926;-58
2022/11/28 01:09:59;;;;;;;;;;;;;;;38.58;nan;101546.09;5080321;28;20378;-57
2022/11/28 01:12:25;;;;;;;;;;;;;;;38.50;nan;101545.47;5085302;28;20302;-57
2022/11/28 01:14:52;;;;;;;;;;;;;;;38.38;nan;101551.81;5087317;28;19963;-57
2022/11/28 01:17:18;;;;;;;;;;;;;;;38.30;nan;101548.31;5077653;28;19943;-57
2022/11/28 01:19:45;;;;;;;;;;;;;;;38.26;nan;101555.31;5090839;28;20011;-58
2022/11/28 01:22:11;;;;;;;;;;;;;;;38.25;nan;101551.69;5081896;28;20356;-57
2022/11/28 01:24:37;;;;;;;;;;;;;;;38.29;nan;101562.97;5083281;28;19921;-57
2022/11/28 01:27:04;;;;;;;;;;;;;;;38.31;nan;101551.97;5088756;28;19920;-57
2022/11/28 01:29:30;;;;;;;;;;;;;;;38.26;nan;101558.16;5077572;28;20393;-58
2022/11/28 01:31:56;;;;;;;;;;;;;;;38.26;nan;101556.13;5088942;28;19920;-57
2022/11/28 01:34:22;;;;;;;;;;;;;;;38.06;nan;101561.75;5083228;28;19948;-57
2022/11/28 01:36:49;;;;;;;;;;;;;;;37.93;nan;101563.63;5086260;28;19954;-57
2022/11/28 01:39:15;;;;;;;;;;;;;;;37.82;nan;101563.00;5078138;28;19916;-57
2022/11/28 01:41:41;;;;;;;;;;;;;;;37.68;nan;101566.03;5090738;28;19920;-57
2022/11/28 01:44:14;;;;;;;;;;;;;;;37.64;nan;101562.47;5081035;28;19916;-56
2022/11/28 01:46:40;;;;;;;;;;;;;;;37.65;nan;101562.03;5082486;28;20417;-57
2022/11/28 01:49:10;;;;;;;;;;;;;;;37.53;nan;101557.00;5088898;28;19916;-57
2022/11/28 01:51:38;;;;;;;;;;;;;;;37.47;nan;101559.50;5075853;28;19927;-57
2022/11/28 01:54:04;;;;;;;;;;;;;;;37.39;nan;101552.34;5087835;28;19956;-57
2022/11/28 01:56:36;;;;;;;;;;;;;;;37.41;nan;101552.72;5083811;28;19965;-58
2022/11/28 01:59:06;;;;;;;;;;;;;;;37.29;nan;101561.03;5079010;28;20346;-57
2022/11/28 02:01:32;;;;;;;;;;;;;;;37.14;nan;101551.91;5090298;28;19927;-57
2022/11/28 02:03:59;;;;;;;;;;;;;;;37.09;nan;101563.72;5079320;28;20405;-57
2022/11/28 02:06:25;;;;;;;;;;;;;;;36.99;nan;101559.84;5085939;28;19939;-57
2022/11/28 02:08:52;;;;;;;;;;;;;;;36.97;nan;101555.78;5080556;28;19920;-57
2022/11/28 02:11:36;;;;;;;;;;;;;;;36.86;nan;101556.78;5090261;28;19916;-57
2022/11/28 02:14:12;;;;;;;;;;;;;;;36.83;nan;101554.78;5079719;28;20298;-57
2022/11/28 02:16:38;;;;;;;;;;;;;;;36.96;nan;101552.16;5082386;28;19977;-57
2022/11/28 02:19:04;;;;;;;;;;;;;;;36.90;nan;101560.34;5088226;28;20053;-58
2022/11/28 02:21:49;;;;;;;;;;;;;;;36.84;nan;101562.06;5076581;28;20018;-57
2022/11/28 02:24:30;;;;;;;;;;;;;;;36.78;nan;101555.22;5085482;28;20410;-57
2022/11/28 02:27:08;;;;;;;;;;;;;;;36.79;nan;101565.34;5086409;28;20030;-57
2022/11/28 02:29:34;;;;;;;;;;;;;;;36.76;nan;101556.88;5076478;28;19921;-57
2022/11/28 02:32:03;;;;;;;;;;;;;;;36.71;nan;101551.69;5087460;28;19920;-57
2022/11/28 02:34:50;;;;;;;;;;;;;;;36.63;nan;101551.00;5080878;28;19946;-57
2022/11/28 02:37:22;;;;;;;;;;;;;;;36.59;nan;101553.03;5068179;28;19970;-56
2022/11/28 02:40:02;;;;;;;;;;;;;;;36.61;nan;101556.25;5077348;28;19920;-56
2022/11/28 02:42:35;;;;;;;;;;;;;;;36.55;nan;101552.28;5083261;28;19921;-57
2022/11/28 02:45:04;;;;;;;;;;;;;;;36.53;nan;101557.59;5087137;28;19924;-57
2022/11/28 02:47:36;;;;;;;;;;;;;;;36.43;nan;101559.31;5076390;28;19920;-57
2022/11/28 02:50:06;;;;;;;;;;;;;;;36.49;nan;101549.13;5086728;28;19928;-57
2022/11/28 02:52:38;;;;;;;;;;;;;;;36.42;nan;101546.38;5083007;28;19919;-57
2022/11/28 02:55:05;;;;;;;;;;;;;;;36.41;nan;101543.97;5077961;28;19921;-56
2022/11/28 02:57:38;;;;;;;;;;;;;;;36.39;nan;101540.75;5089593;28;19923;-57
2022/11/28 03:00:24;;;;;;;;;;;;;;;36.36;nan;101538.78;5078994;28;19952;-57
2022/11/28 03:03:01;;;;;;;;;;;;;;;36.57;nan;101547.00;5079897;28;19931;-57
2022/11/28 03:05:46;;;;;;;;;;;;;;;36.43;nan;101541.50;5083102;28;19920;-57
2022/11/28 03:08:12;;;;;;;;;;;;;;;36.54;nan;101542.19;5085297;28;20386;-57
2022/11/28 03:10:38;;;;;;;;;;;;;;;36.49;nan;101540.66;5077483;28;19927;-57
2022/11/28 03:13:11;;;;;;;;;;;;;;;36.43;nan;101536.66;5072364;28;19921;-57
2022/11/28 03:15:43;;;;;;;;;;;;;;;36.36;nan;101550.09;5089328;28;19965;-56
2022/11/28 03:18:09;;;;;;;;;;;;;;;36.27;nan;101548.56;5080013;28;20410;-56
2022/11/28 03:20:55;;;;;;;;;;;;;;;36.31;nan;101540.03;5081784;28;20322;-58
2022/11/28 03:23:40;;;;;;;;;;;;;;;36.29;nan;101540.44;5089289;28;19927;-56
2022/11/28 03:26:08;;;;;;;;;;;;;;;36.30;nan;101539.22;5079364;28;19931;-57
2022/11/28 03:28:34;;;;;;;;;;;;;;;36.30;nan;101542.06;5082292;28;19939;-57
2022/11/28 03:31:03;;;;;;;;;;;;;;;36.25;nan;101539.66;5086689;28;20337;-57
2022/11/28 03:33:35;;;;;;;;;;;;;;;36.24;nan;101543.72;5075844;28;20011;-57
2022/11/28 03:36:07;;;;;;;;;;;;;;;36.12;nan;101535.78;5083012;28;19916;-56
2022/11/28 03:38:36;;;;;;;;;;;;;;;36.10;nan;101528.97;5081938;28;20379;-56
2022/11/28 03:41:07;;;;;;;;;;;;;;;36.07;nan;101536.22;5089661;28;20397;-56
2022/11/28 03:43:40;;;;;;;;;;;;;;;36.06;nan;101528.97;5079672;28;19921;-57
2022/11/28 03:46:10;;;;;;;;;;;;;;;35.96;nan;101533.53;5089434;28;19975;-57
2022/11/28 03:48:41;;;;;;;;;;;;;;;35.92;nan;101529.16;5087236;28;19969;-57
2022/11/28 03:51:23;;;;;;;;;;;;;;;35.94;nan;101521.84;5080859;28;19927;-57
2022/11/28 03:54:04;;;;;;;;;;;;;;;35.84;nan;101524.78;5080574;28;19920;-56
2022/11/28 03:56:33;;;;;;;;;;;;;;;35.85;nan;101520.72;5078654;28;20310;-57
2022/11/28 03:59:03;;;;;;;;;;;;;;;35.83;nan;101523.13;5090036;28;19939;-56
2022/11/28 04:01:32;;;;;;;;;;;;;;;35.85;nan;101517.88;5079391;28;20413;-56
2022/11/28 04:04:06;;;;;;;;;;;;;;;35.95;nan;101516.97;5090404;28;20386;-56
2022/11/28 04:06:43;;;;;;;;;;;;;;;35.95;nan;101514.16;5086181;28;20014;-57
2022/11/28 04:09:13;;;;;;;;;;;;;;;35.91;nan;101517.03;5080356;28;19928;-56
2022/11/28 04:11:43;;;;;;;;;;;;;;;35.80;nan;101515.50;5092561;28;19951;-56
2022/11/28 04:14:32;;;;;;;;;;;;;;;35.67;nan;101513.16;5083494;28;19931;-55
2022/11/28 04:17:02;;;;;;;;;;;;;;;35.58;nan;101514.91;5081594;28;19917;-58
2022/11/28 04:19:51;;;;;;;;;;;;;;;35.56;nan;101523.00;5092299;28;19920;-56
2022/11/28 04:22:21;;;;;;;;;;;;;;;35.44;nan;101527.13;5064565;28;19926;-57
2022/11/28 04:24:55;;;;;;;;;;;;;;;35.45;nan;101523.06;5083017;28;19912;-57
2022/11/28 04:27:28;;;;;;;;;;;;;;;35.49;nan;101520.22;5092348;28;20034;-56
2022/11/28 04:29:57;;;;;;;;;;;;;;;35.41;nan;101516.66;5080750;28;20440;-56
2022/11/28 04:32:24;;;;;;;;;;;;;;;35.46;nan;101519.03;5086459;28;19916;-56
2022/11/28 04:34:57;;;;;;;;;;;;;;;35.41;nan;101516.66;5075591;28;19920;-57
2022/11/28 04:37:24;;;;;;;;;;;;;;;35.33;nan;101520.72;5091999;28;20011;-57
2022/11/28 04:39:51;;;;;;;;;;;;;;;35.22;nan;101520.81;5079843;28;19966;-57
2022/11/28 04:42:20;;;;;;;;;;;;;;;35.29;nan;101525.59;5086990;28;19924;-57
2022/11/28 04:44:50;;;;;;;;;;;;;;;35.17;nan;101518.41;5087498;28;19970;-57
2022/11/28 04:47:17;;;;;;;;;;;;;;;35.16;nan;101508.31;5078610;28;19982;-57
2022/11/28 04:49:43;;;;;;;;;;;;;;;35.12;nan;101505.53;5062420;28;19916;-56
2022/11/28 04:52:25;;;;;;;;;;;;;;;35.11;nan;101486.16;5087400;28;19924;-56
2022/11/28 04:55:03;;;;;;;;;;;;;;;34.99;nan;101504.41;5074897;28;20027;-57
2022/11/28 04:57:41;;;;;;;;;;;;;;;34.81;nan;101501.66;5074964;28;19916;-57
2022/11/28 05:00:09;;;;;;;;;;;;;;;34.86;nan;101508.94;5074823;28;19931;-57
2022/11/28 05:02:36;;;;;;;;;;;;;;;34.83;nan;101501.25;5074999;28;19916;-58
2022/11/28 05:05:08;;;;;;;;;;;;;;;34.80;nan;101510.56;5067389;28;19924;-57
2022/11/28 05:07:34;;;;;;;;;;;;;;;34.78;nan;101496.03;5073821;28;20337;-57
2022/11/28 05:10:01;;;;;;;;;;;;;;;34.75;nan;101496.88;5074603;28;19928;-57
2022/11/28 05:12:27;;;;;;;;;;;;;;;34.60;nan;101489.69;5074717;28;19921;-57
2022/11/28 05:14:53;;;;;;;;;;;;;;;34.62;nan;101488.06;5060318;28;20004;-57
2022/11/28 05:17:19;;;;;;;;;;;;;;;34.66;nan;101482.41;5059059;28;19925;-57
2022/11/28 05:19:45;;;;;;;;;;;;;;;34.79;nan;101480.69;5044491;28;19928;-58
2022/11/28 05:22:12;;;;;;;;;;;;;;;34.62;nan;101488.06;5047811;28;19921;-56
2022/11/28 05:24:38;;;;;;;;;;;;;;;34.60;nan;101481.22;5048888;28;19956;-56
2022/11/28 05:27:06;;;;;;;;;;;;;;;34.61;nan;101486.44;5046455;28;19921;-57
2022/11/28 05:29:32;;;;;;;;;;;;;;;34.48;nan;101488.97;5059860;28;19925;-58
2022/11/28 05:31:58;;;;;;;;;;;;;;;34.46;nan;101491.34;5048289;28;19974;-58
2022/11/28 05:34:25;;;;;;;;;;;;;;;34.40;nan;101487.38;5048709;28;19928;-58
2022/11/28 05:36:51;;;;;;;;;;;;;;;34.25;nan;101485.78;5051718;28;19995;-59
2022/11/28 05:39:17;;;;;;;;;;;;;;;34.23;nan;101486.19;5046983;28;19924;-59
2022/11/28 05:41:43;;;;;;;;;;;;;;;34.14;nan;101485.03;5050211;28;20049;-58
2022/11/28 05:44:09;;;;;;;;;;;;;;;34.25;nan;101480.94;5045767;28;19921;-58
2022/11/28 05:46:36;;;;;;;;;;;;;;;34.07;nan;101477.38;5049537;28;19996;-58
2022/11/28 05:49:02;;;;;;;;;;;;;;;34.23;nan;101476.94;5045755;28;20015;-58
2022/11/28 05:51:29;;;;;;;;;;;;;;;34.21;nan;101482.19;5064241;28;19932;-58
2022/11/28 05:53:55;;;;;;;;;;;;;;;34.19;nan;101484.59;5066885;28;19963;-58
2022/11/28 05:56:24;;;;;;;;;;;;;;;34.17;nan;101484.22;5067666;28;19928;-58
2022/11/28 05:58:53;;;;;;;;;;;;;;;34.22;nan;101489.44;5068526;28;20659;-58
2022/11/28 06:01:21;;;;;;;;;;;;;;;34.11;nan;101478.19;5068248;28;19964;-58
2022/11/28 06:03:48;;;;;;;;;;;;;;;34.08;nan;101469.72;5067889;28;19928;-58
2022/11/28 06:06:18;;;;;;;;;;;;;;;34.06;nan;101466.50;5069710;28;19920;-58
2022/11/28 06:08:46;;;;;;;;;;;;;;;34.13;nan;101461.66;5066470;28;19925;-58
2022/11/28 06:11:15;;;;;;;;;;;;;;;33.97;nan;101458.50;5068508;28;19929;-57
2022/11/28 06:13:42;;;;;;;;;;;;;;;33.88;nan;101458.91;5070839;28;19982;-57
2022/11/28 06:16:12;;;;;;;;;;;;;;;33.99;nan;101458.06;5068328;28;19926;-58
2022/11/28 06:18:39;;;;;;;;;;;;;;;34.02;nan;101454.44;5072209;28;19924;-58
2022/11/28 06:21:06;;;;;;;;;;;;;;;34.10;nan;101441.91;5071548;28;19999;-58
2022/11/28 06:23:33;;;;;;;;;;;;;;;34.30;nan;101437.41;5072855;28;19973;-58
2022/11/28 06:26:12;;;;;;;;;;;;;;;34.24;nan;101434.19;5071811;28;20338;-57
2022/11/28 06:28:39;;;;;;;;;;;;;;;34.30;nan;101425.31;5071949;28;19925;-58
2022/11/28 06:31:09;;;;;;;;;;;;;;;34.24;nan;101427.75;5073143;28;20033;-57
2022/11/28 06:33:36;;;;;;;;;;;;;;;34.26;nan;101433.78;5072276;28;19920;-58
2022/11/28 06:36:03;;;;;;;;;;;;;;;34.25;nan;101415.22;5073153;28;19925;-57
2022/11/28 06:38:30;;;;;;;;;;;;;;;34.30;nan;101416.84;5073539;28;19920;-58
2022/11/28 06:40:57;;;;;;;;;;;;;;;34.27;nan;101407.16;5073245;28;20378;-58
2022/11/28 06:43:23;;;;;;;;;;;;;;;34.24;nan;101400.31;5073105;28;19921;-58
2022/11/28 06:45:49;;;;;;;;;;;;;;;34.32;nan;101405.94;5073372;28;20427;-58
2022/11/28 06:48:16;;;;;;;;;;;;;;;34.30;nan;101400.72;5073060;28;20454;-57
2022/11/28 06:50:42;;;;;;;;;;;;;;;34.15;nan;101399.19;5072916;28;19924;-58
2022/11/28 06:53:08;;;;;;;;;;;;;;;34.20;nan;101404.38;5066476;28;19945;-57
2022/11/28 06:55:34;;;;;;;;;;;;;;;34.24;nan;101396.69;5063127;28;19921;-58
2022/11/28 06:58:01;;;;;;;;;;;;;;;34.05;nan;101398.00;5062037;28;19924;-58
2022/11/28 07:00:27;;;;;;;;;;;;;;;34.25;nan;101395.47;5058550;28;20039;-58
2022/11/28 07:02:53;;;;;;;;;;;;;;;34.29;nan;101384.97;5063203;28;20480;-58
2022/11/28 07:05:21;;;;;;;;;;;;;;;34.33;nan;101385.78;5063588;28;20347;-58
2022/11/28 07:07:48;;;;;;;;;;;;;;;34.37;nan;101382.97;5062051;28;20033;-58
2022/11/28 07:10:14;;;;;;;;;;;;;;;34.37;nan;101372.47;5063175;28;20444;-58
2022/11/28 07:12:40;;;;;;;;;;;;;;;34.44;nan;101375.22;5063755;28;19947;-58
2022/11/28 07:15:07;;;;;;;;;;;;;;;34.42;nan;101383.31;5062298;28;19943;-58
2022/11/28 07:17:33;;;;;;;;;;;;;;;34.47;nan;101399.84;5066981;28;20283;-58
2022/11/28 07:19:59;;;;;;;;;;;;;;;34.49;nan;101383.28;5067717;28;19956;-58
2022/11/28 07:22:26;;;;;;;;;;;;;;;34.42;nan;101383.31;5065726;28;19921;-58
2022/11/28 07:24:52;;;;;;;;;;;;;;;34.40;nan;101382.13;5067016;28;19916;-58
2022/11/28 07:27:18;;;;;;;;;;;;;;;34.24;nan;101376.94;5067603;28;20409;-58
2022/11/28 07:29:44;;;;;;;;;;;;;;;34.29;nan;101373.69;5065494;28;19957;-58
2022/11/28 07:32:11;;;;;;;;;;;;;;;34.07;nan;101381.47;5067071;28;19924;-59
2022/11/28 07:34:37;;;;;;;;;;;;;;;34.08;nan;101380.25;5062287;28;19917;-59
2022/11/28 07:37:03;;;;;;;;;;;;;;;33.90;nan;101373.88;5056968;28;19924;-58
2022/11/28 07:39:29;;;;;;;;;;;;;;;33.85;nan;101357.38;5039172;28;19916;-58
2022/11/28 07:41:56;;;;;;;;;;;;;;;34.04;nan;101368.19;5056673;28;19921;-58
2022/11/28 07:44:22;;;;;;;;;;;;;;;34.11;nan;101358.88;5056733;28;19923;-58
2022/11/28 07:46:48;;;;;;;;;;;;;;;34.15;nan;101356.84;5056693;28;19921;-58
2022/11/28 07:49:15;;;;;;;;;;;;;;;34.02;nan;101372.63;5056894;28;19924;-58
2022/11/28 07:51:42;;;;;;;;;;;;;;;33.98;nan;101369.03;5037730;28;19947;-58
2022/11/28 07:54:09;;;;;;;;;;;;;;;34.02;nan;101358.53;5056662;28;19921;-58
2022/11/28 07:56:36;;;;;;;;;;;;;;;33.99;nan;101365.00;5056591;28;19970;-58
2022/11/28 07:59:03;;;;;;;;;;;;;;;33.89;nan;101355.34;5056704;28;19917;-58
2022/11/28 08:01:34;;;;;;;;;;;;;;;33.88;nan;101340.44;5056582;28;19928;-58
2022/11/28 08:04:01;;;;;;;;;;;;;;;33.86;nan;101331.59;5056684;28;19924;-58
2022/11/28 08:06:28;;;;;;;;;;;;;;;33.87;nan;101324.75;5056327;28;20011;-59
2022/11/28 08:08:55;;;;;;;;;;;;;;;33.95;nan;101328.34;5088672;28;19928;-58
2022/11/28 08:11:23;;;;;;;;;;;;;;;33.92;nan;101318.66;5056401;28;19924;-58
2022/11/28 08:13:50;;;;;;;;;;;;;;;33.65;nan;101311.94;5056306;28;19927;-58
2022/11/28 08:16:18;;;;;;;;;;;;;;;33.64;nan;101322.41;5056356;28;19923;-58
2022/11/28 08:18:45;;;;;;;;;;;;;;;33.66;nan;101319.16;5056157;28;19966;-59
2022/11/28 08:21:11;;;;;;;;;;;;;;;33.60;nan;101320.81;5056219;28;19916;-59
2022/11/28 08:23:38;;;;;;;;;;;;;;;33.54;nan;101316.78;5056233;28;20493;-58
2022/11/28 08:26:05;;;;;;;;;;;;;;;33.60;nan;101320.81;5055092;28;19917;-58
2022/11/28 08:28:32;;;;;;;;;;;;;;;33.64;nan;101310.31;5055919;28;19920;-58
2022/11/28 08:31:00;;;;;;;;;;;;;;;33.64;nan;101310.31;5056014;28;19971;-58
2022/11/28 08:33:27;;;;;;;;;;;;;;;33.60;nan;101310.34;5058598;28;19920;-58
2022/11/28 08:35:53;;;;;;;;;;;;;;;33.60;nan;101304.72;5075662;28;19913;-58
2022/11/28 08:38:19;;;;;;;;;;;;;;;33.54;nan;101305.53;5075906;28;20444;-58
2022/11/28 08:40:45;;;;;;;;;;;;;;;33.47;nan;101308.38;5075647;28;20342;-58
2022/11/28 08:43:12;;;;;;;;;;;;;;;33.63;nan;101300.25;5075809;28;20386;-58
2022/11/28 08:45:38;;;;;;;;;;;;;;;33.60;nan;101299.06;5075586;28;19924;-58
2022/11/28 08:48:04;;;;;;;;;;;;;;;33.49;nan;101303.13;5075704;28;20310;-58
2022/11/28 08:50:30;;;;;;;;;;;;;;;33.45;nan;101300.31;5075799;28;20342;-58
2022/11/28 08:52:57;;;;;;;;;;;;;;;33.61;nan;101300.66;5075341;28;20050;-57
2022/11/28 08:55:23;;;;;;;;;;;;;;;33.90;nan;101294.91;5075385;28;19921;-57
2022/11/28 08:57:49;;;;;;;;;;;;;;;33.92;nan;101298.91;5075395;28;19927;-57
2022/11/28 09:00:16;;;;;;;;;;;;;;;33.83;nan;101301.38;5075546;28;19982;-56
2022/11/28 09:02:42;;;;;;;;;;;;;;;33.73;nan;101298.59;5075410;28;19920;-57
2022/11/28 09:05:08;;;;;;;;;;;;;;;33.84;nan;101297.38;5073974;28;20363;-57
2022/11/28 09:07:34;;;;;;;;;;;;;;;33.70;nan;101303.03;5075302;28;19928;-57
2022/11/28 09:10:01;;;;;;;;;;;;;;;33.56;nan;101308.72;5075250;28;19920;-58
2022/11/28 09:12:29;;;;;;;;;;;;;;;33.54;nan;101313.97;5075164;28;20010;-57
2022/11/28 09:14:55;;;;;;;;;;;;;;;33.39;nan;101309.59;5075162;28;19979;-57
2022/11/28 09:17:22;;;;;;;;;;;;;;;33.40;nan;101302.78;5075132;28;20011;-58
2022/11/28 09:19:48;;;;;;;;;;;;;;;33.54;nan;101294.25;5074988;28;19940;-57
2022/11/28 09:22:14;;;;;;;;;;;;;;;33.52;nan;101293.84;5075002;28;19928;-57
2022/11/28 09:24:40;;;;;;;;;;;;;;;33.57;nan;101282.94;5074892;28;19923;-57
2022/11/28 09:27:07;;;;;;;;;;;;;;;33.54;nan;101275.31;5074816;28;19920;-57
2022/11/28 09:29:33;;;;;;;;;;;;;;;33.45;nan;101279.78;5074807;28;20267;-57
2022/11/28 09:31:59;;;;;;;;;;;;;;;33.41;nan;101270.56;5074761;28;19935;-57
2022/11/28 09:34:26;;;;;;;;;;;;;;;33.36;nan;101268.94;5075029;28;19917;-57
2022/11/28 09:36:53;;;;;;;;;;;;;;;33.42;nan;101272.97;5107232;28;20251;-57
2022/11/28 09:39:19;;;;;;;;;;;;;;;33.41;nan;101267.75;5074697;28;19916;-57
2022/11/28 09:41:53;;;;;;;;;;;;;;;33.47;nan;101271.72;5074604;28;19920;-57
2022/11/28 09:44:32;;;;;;;;;;;;;;;33.59;nan;101274.09;5074582;28;19920;-57
2022/11/28 09:47:00;;;;;;;;;;;;;;;33.64;nan;101270.84;5073293;28;19921;-57
2022/11/28 09:49:30;;;;;;;;;;;;;;;33.47;nan;101268.91;5074538;28;20415;-57
2022/11/28 09:52:00;;;;;;;;;;;;;;;33.56;nan;101272.09;5074232;28;19924;-57
2022/11/28 09:54:38;;;;;;;;;;;;;;;33.63;nan;101274.88;5074486;28;19928;-57
2022/11/28 09:57:10;;;;;;;;;;;;;;;33.64;nan;101270.84;5074623;28;20015;-57
2022/11/28 09:59:36;;;;;;;;;;;;;;;33.62;nan;101279.72;5074169;28;19921;-57
2022/11/28 10:02:08;;;;;;;;;;;;;;;33.31;nan;101274.97;5074200;28;20010;-57
2022/11/28 10:04:38;;;;;;;;;;;;;;;33.42;nan;101272.16;5074215;28;20379;-58
2022/11/28 10:07:17;;;;;;;;;;;;;;;33.60;nan;101275.72;5073963;28;19917;-58
2022/11/28 10:10:02;;;;;;;;;;;;;;;33.62;nan;101268.44;5074056;28;20317;-57
2022/11/28 10:12:37;;;;;;;;;;;;;;;33.71;nan;101258.72;5073998;28;20390;-57
2022/11/28 10:15:10;;;;;;;;;;;;;;;33.44;nan;101261.28;5072679;28;20243;-58
2022/11/28 10:17:54;;;;;;;;;;;;;;;33.19;nan;101269.78;5074060;28;19920;-58
2022/11/28 10:20:30;;;;;;;;;;;;;;;33.18;nan;101254.88;5073915;28;20440;-58
2022/11/28 10:23:14;;;;;;;;;;;;;;;33.57;nan;101260.41;5073625;28;19927;-58
2022/11/28 10:25:47;;;;;;;;;;;;;;;33.61;nan;101254.78;5073060;28;19924;-58
2022/11/28 10:28:20;;;;;;;;;;;;;;;33.76;nan;101249.88;5073123;28;20023;-58
2022/11/28 10:31:19;;;;;;;;;;;;;;;33.63;nan;101249.53;5073913;28;19920;-58
2022/11/28 10:33:49;;;;;;;;;;;;;;;33.65;nan;101244.28;5061927;28;19947;-58
2022/11/28 10:36:26;;;;;;;;;;;;;;;33.72;nan;101238.59;5073571;28;19927;-57
2022/11/28 10:38:53;;;;;;;;;;;;;;;33.85;nan;101245.38;5073730;28;20382;-57
2022/11/28 10:41:28;;;;;;;;;;;;;;;33.78;nan;101238.97;5073722;28;19916;-57
2022/11/28 10:44:02;;;;;;;;;;;;;;;33.59;nan;101240.28;5073593;28;19989;-57
2022/11/28 10:46:51;;;;;;;;;;;;;;;33.58;nan;101236.66;5073718;28;20192;-57
2022/11/28 10:49:20;;;;;;;;;;;;;;;33.21;nan;101256.88;5074374;28;20315;-57
2022/11/28 10:51:56;;;;;;;;;;;;;;;33.20;nan;101260.91;5073552;28;19970;-56
2022/11/28 10:54:45;;;;;;;;;;;;;;;32.08;nan;101258.50;5073793;28;20015;-57
2022/11/28 10:57:17;;;;;;;;;;;;;;;32.94;nan;101247.31;5063123;28;20281;-57
2022/11/28 10:59:49;;;;;;;;;;;;;;;33.20;nan;101246.81;5073453;28;19967;-57
2022/11/28 11:02:36;;;;;;;;;;;;;;;33.33;nan;101250.84;5073250;28;19928;-59
2022/11/28 11:05:03;;;;;;;;;;;;;;;32.95;nan;101246.91;5069808;28;19920;-57
2022/11/28 11:07:30;;;;;;;;;;;;;;;32.99;nan;101249.69;5073405;28;19921;-57
2022/11/28 11:10:11;;;;;;;;;;;;;;;33.15;nan;101244.44;5073448;28;20011;-57
2022/11/28 11:12:38;;;;;;;;;;;;;;;32.72;nan;101238.88;5073331;28;19921;-57
2022/11/28 11:15:15;;;;;;;;;;;;;;;32.83;nan;101232.44;5073299;28;19942;-57
2022/11/28 11:17:41;;;;;;;;;;;;;;;32.35;nan;101253.38;5073118;28;19932;-57
2022/11/28 11:20:37;;;;;;;;;;;;;;;32.11;nan;101259.72;5073168;28;19923;-57
2022/11/28 11:23:20;;;;;;;;;;;;;;;32.40;nan;101260.59;5068363;28;19920;-57
2022/11/28 11:25:51;;;;;;;;;;;;;;;32.54;nan;101246.53;5073253;28;19949;-57
2022/11/28 11:28:46;;;;;;;;;;;;;;;32.50;nan;101240.09;5073271;28;20340;-57
2022/11/28 11:31:21;;;;;;;;;;;;;;;32.65;nan;101232.44;5068351;28;19920;-57
2022/11/28 11:33:49;;;;;;;;;;;;;;;32.65;nan;101229.63;5073279;28;20370;-57
2022/11/28 11:36:26;;;;;;;;;;;;;;;32.54;nan;101226.03;5072547;28;19917;-57
2022/11/28 11:39:04;;;;;;;;;;;;;;;32.59;nan;101215.16;5073246;28;19920;-57
2022/11/28 11:41:31;;;;;;;;;;;;;;;32.60;nan;101191.44;5072294;28;19935;-57
2022/11/28 11:44:16;;;;;;;;;;;;;;;32.55;nan;101197.47;5072958;28;19920;-57
2022/11/28 11:46:53;;;;;;;;;;;;;;;32.14;nan;101200.69;5088509;28;20278;-57
2022/11/28 11:49:39;;;;;;;;;;;;;;;32.25;nan;101194.25;5072980;28;19926;-57
2022/11/28 11:52:13;;;;;;;;;;;;;;;32.33;nan;101193.06;5072743;28;19921;-56
2022/11/28 11:54:51;;;;;;;;;;;;;;;32.33;nan;101188.25;5072761;28;20425;-57
2022/11/28 11:57:20;;;;;;;;;;;;;;;32.30;nan;101188.22;5072811;28;20403;-57
2022/11/28 11:59:51;;;;;;;;;;;;;;;32.23;nan;101188.22;5072828;28;19917;-57
2022/11/28 12:02:23;;;;;;;;;;;;;;;32.06;nan;101201.88;5075839;28;19917;-56
2022/11/28 12:04:54;;;;;;;;;;;;;;;32.24;nan;101193.44;5076481;28;19920;-56
2022/11/28 12:07:23;;;;;;;;;;;;;;;29.66;nan;101194.31;5076312;28;19920;-57
2022/11/28 12:09:51;;;;;;;;;;;;;;;30.49;nan;101188.25;5076246;28;19920;-57
2022/11/28 12:12:21;;;;;;;;;;;;;;;30.70;nan;101199.66;5076267;28;19986;-57
2022/11/28 12:14:48;;;;;;;;;;;;;;;29.46;nan;101204.88;5076525;28;19920;-57
2022/11/28 12:17:33;;;;;;;;;;;;;;;31.16;nan;101201.94;5076179;28;19922;-57
2022/11/28 12:20:17;;;;;;;;;;;;;;;31.98;nan;101194.63;5076161;28;20405;-58
2022/11/28 12:22:44;;;;;;;;;;;;;;;32.13;nan;101196.22;5076151;28;19920;-58
2022/11/28 12:25:12;;;;;;;;;;;;;;;32.37;nan;101205.13;5076133;28;20002;-58
2022/11/28 12:27:45;;;;;;;;;;;;;;;32.43;nan;101197.88;5076090;28;19947;-58
2022/11/28 12:30:17;;;;;;;;;;;;;;;32.12;nan;101193.81;5075924;28;19928;-58
2022/11/28 12:33:11;;;;;;;;;;;;;;;31.60;nan;101195.31;5075954;28;19924;-58
2022/11/28 12:35:42;;;;;;;;;;;;;;;32.23;nan;101182.59;5075896;28;19920;-58
2022/11/28 12:38:08;;;;;;;;;;;;;;;32.35;nan;101182.22;5075996;28;19921;-58
2022/11/28 12:40:41;;;;;;;;;;;;;;;32.47;nan;101184.59;5075771;28;19916;-56
2022/11/28 12:43:07;;;;;;;;;;;;;;;31.74;nan;101189.75;5075713;28;20309;-57
2022/11/28 12:45:52;;;;;;;;;;;;;;;31.67;nan;101189.72;5075577;28;19916;-57
2022/11/28 12:48:38;;;;;;;;;;;;;;;32.03;nan;101182.97;5075896;28;19920;-57
2022/11/28 12:51:11;;;;;;;;;;;;;;;31.79;nan;101197.81;5075730;28;19943;-57
2022/11/28 12:53:56;;;;;;;;;;;;;;;31.63;nan;101194.53;5075329;28;19920;-57
2022/11/28 12:56:28;;;;;;;;;;;;;;;31.75;nan;101192.16;5075742;28;20389;-57
2022/11/28 12:59:03;;;;;;;;;;;;;;;31.74;nan;101192.56;5075476;28;19927;-57
2022/11/28 13:01:41;;;;;;;;;;;;;;;31.73;nan;101199.41;5074534;28;19920;-57
2022/11/28 13:04:36;;;;;;;;;;;;;;;31.65;nan;101200.56;5075537;28;19920;-57
2022/11/28 13:07:21;;;;;;;;;;;;;;;31.54;nan;101204.13;5053198;28;19920;-57
2022/11/28 13:10:06;;;;;;;;;;;;;;;31.71;nan;101196.16;5055272;28;19928;-57
2022/11/28 13:12:32;;;;;;;;;;;;;;;31.53;nan;101208.16;5054905;28;19925;-57
2022/11/28 13:15:01;;;;;;;;;;;;;;;31.41;nan;101199.25;5066798;28;20003;-57